Time;durP1;ratioP1;P1;durP2;ratioP2;P2;SDS_P1;SDS_P2;PMS_P1;PMS_P2;Temp;Humidity;BMP_temperature;BMP_pressure;BME280_temperature;BME280_humidity;BME280_pressure;Samples;Min_cycle;Max_cycle;Signal;HPM_P1;HPM_P2
2022/08/15 00:02:22;;;;;;;12.00;10.80;;;;;;;18.95;100.00;98815.63;5034059;28;20377;-77
2022/08/15 00:04:48;;;;;;;12.27;11.07;;;;;;;18.94;100.00;98813.13;5034259;28;20539;-77
2022/08/15 00:07:13;;;;;;;13.48;12.18;;;;;;;18.93;100.00;98825.50;5033989;28;20049;-77
2022/08/15 00:09:38;;;;;;;13.68;12.13;;;;;;;18.94;100.00;98829.78;5034227;28;20032;-77
2022/08/15 00:12:04;;;;;;;13.25;10.40;;;;;;;18.87;100.00;98806.75;5034276;28;20079;-77
2022/08/15 00:14:32;;;;;;;12.35;10.85;;;;;;;18.88;100.00;98819.84;5033260;28;20036;-76
2022/08/15 00:17:00;;;;;;;16.42;13.07;;;;;;;18.84;100.00;98810.53;5034016;28;20036;-76
2022/08/15 00:19:29;;;;;;;13.90;12.48;;;;;;;18.87;100.00;98818.16;5033833;28;20056;-77
2022/08/15 00:21:59;;;;;;;13.63;11.80;;;;;;;18.81;100.00;98815.28;5033845;28;20112;-77
2022/08/15 00:24:29;;;;;;;13.88;12.40;;;;;;;18.84;100.00;98820.28;5033758;28;20108;-77
2022/08/15 00:26:56;;;;;;;12.57;11.25;;;;;;;18.78;100.00;98812.91;5033944;28;20057;-76
2022/08/15 00:29:25;;;;;;;13.00;11.70;;;;;;;18.76;100.00;98814.88;5033688;28;20061;-76
2022/08/15 00:31:53;;;;;;;12.70;11.32;;;;;;;18.79;100.00;98814.56;5033764;28;20377;-76
2022/08/15 00:34:20;;;;;;;12.88;11.23;;;;;;;18.73;100.00;98813.34;5033373;28;20034;-76
2022/08/15 00:36:49;;;;;;;11.65;10.55;;;;;;;18.77;100.00;98820.00;5033733;28;20041;-76
2022/08/15 00:39:16;;;;;;;12.23;11.02;;;;;;;18.74;100.00;98822.09;5033735;28;20083;-77
2022/08/15 00:41:42;;;;;;;13.18;11.55;;;;;;;18.79;100.00;98830.41;5033725;28;20025;-76
2022/08/15 00:44:20;;;;;;;12.30;11.10;;;;;;;18.74;100.00;98830.84;5033577;28;20491;-76
2022/08/15 00:46:59;;;;;;;13.13;11.85;;;;;;;18.74;100.00;98827.38;5033482;28;20372;-76
2022/08/15 00:49:27;;;;;;;12.57;11.38;;;;;;;18.77;100.00;98833.19;5033328;28;20037;-76
2022/08/15 00:52:04;;;;;;;13.55;12.23;;;;;;;18.88;100.00;98846.22;5033450;28;20083;-76
2022/08/15 00:54:39;;;;;;;12.25;11.05;;;;;;;18.93;100.00;98843.97;5033182;28;20113;-76
2022/08/15 00:57:17;;;;;;;12.65;11.45;;;;;;;18.93;100.00;98832.59;5033162;28;20027;-76
2022/08/15 00:59:47;;;;;;;12.45;11.10;;;;;;;19.00;100.00;98830.19;5033526;28;20036;-76
2022/08/15 01:02:15;;;;;;;12.60;11.35;;;;;;;19.01;100.00;98821.31;5033390;28;20423;-76
2022/08/15 01:04:41;;;;;;;12.77;11.57;;;;;;;19.03;100.00;98819.34;5032997;28;20026;-76
2022/08/15 01:07:07;;;;;;;13.30;12.00;;;;;;;19.08;100.00;98830.28;5032920;28;20053;-76
2022/08/15 01:09:33;;;;;;;13.52;12.15;;;;;;;19.11;100.00;98824.72;5033007;28;20029;-76
2022/08/15 01:12:07;;;;;;;12.32;11.13;;;;;;;19.08;100.00;98823.19;5032917;28;20493;-76
2022/08/15 01:14:35;;;;;;;12.10;11.00;;;;;;;19.11;100.00;98830.84;5032866;28;20027;-76
2022/08/15 01:17:01;;;;;;;13.30;12.00;;;;;;;19.14;100.00;98822.63;5032858;28;20029;-76
2022/08/15 01:19:34;;;;;;;12.82;11.15;;;;;;;19.16;100.00;98819.84;5032680;28;20071;-76
2022/08/15 01:22:16;;;;;;;13.23;11.38;;;;;;;19.24;100.00;98834.97;5032796;28;20079;-76
2022/08/15 01:24:54;;;;;;;12.40;11.20;;;;;;;19.18;100.00;98825.81;5032517;28;20030;-76
2022/08/15 01:27:23;;;;;;;12.75;11.45;;;;;;;19.20;100.00;98814.13;5032226;28;20061;-76
2022/08/15 01:29:50;;;;;;;13.80;12.30;;;;;;;19.15;100.00;98800.53;5032826;28;20025;-76
2022/08/15 01:32:16;;;;;;;15.85;11.80;;;;;;;19.19;100.00;98815.09;5032674;28;20416;-76
2022/08/15 01:34:42;;;;;;;13.73;12.32;;;;;;;19.04;100.00;98782.25;5032266;28;20083;-76
2022/08/15 01:37:07;;;;;;;13.48;12.18;;;;;;;19.10;100.00;98789.59;5032600;28;20435;-76
2022/08/15 01:39:46;;;;;;;15.98;12.60;;;;;;;19.11;100.00;98783.34;5032212;28;20029;-76
2022/08/15 01:42:21;;;;;;;14.60;12.48;;;;;;;19.13;100.00;98793.72;5032577;28;20088;-76
2022/08/15 01:44:58;;;;;;;13.70;12.27;;;;;;;19.10;100.00;98791.41;5032475;28;20053;-76
2022/08/15 01:47:41;;;;;;;13.77;12.20;;;;;;;19.06;100.00;98798.78;5032310;28;20461;-76
2022/08/15 01:50:14;;;;;;;13.10;11.80;;;;;;;18.99;100.00;98802.97;5032464;28;20029;-76
2022/08/15 01:52:46;;;;;;;16.48;13.10;;;;;;;18.94;100.00;98808.69;5031822;28;20041;-76
2022/08/15 01:55:15;;;;;;;14.32;12.80;;;;;;;18.94;100.00;98807.84;5032332;28;20111;-76
2022/08/15 01:57:40;;;;;;;13.57;12.27;;;;;;;18.87;100.00;98791.75;5031809;28;20108;-76
2022/08/15 02:00:09;;;;;;;15.30;13.57;;;;;;;18.82;100.00;98787.91;5032407;28;20025;-76
2022/08/15 02:02:34;;;;;;;14.30;12.90;;;;;;;18.79;100.00;98785.53;5032171;28;20029;-76
2022/08/15 02:05:00;;;;;;;14.23;12.82;;;;;;;18.80;100.00;98798.63;5032050;28;20381;-76
2022/08/15 02:07:28;;;;;;;14.75;13.05;;;;;;;18.75;100.00;98792.09;5031821;28;20026;-76
2022/08/15 02:09:55;;;;;;;14.50;13.00;;;;;;;18.74;100.00;98795.72;5031994;28;20234;-76
2022/08/15 02:12:32;;;;;;;15.82;12.85;;;;;;;18.67;100.00;98784.88;5031937;28;20057;-76
2022/08/15 02:15:00;;;;;;;14.00;12.60;;;;;;;18.74;100.00;98803.63;5032100;28;20036;-76
2022/08/15 02:17:25;;;;;;;16.13;14.52;;;;;;;18.68;100.00;98794.47;5031635;28;20022;-76
2022/08/15 02:19:51;;;;;;;16.40;14.20;;;;;;;18.63;100.00;98783.50;5031977;28;20369;-76
2022/08/15 02:22:21;;;;;;;16.60;14.68;;;;;;;18.66;100.00;98797.22;5031896;28;20033;-76
2022/08/15 02:24:47;;;;;;;18.27;16.25;;;;;;;18.66;100.00;98799.84;5031441;28;20040;-77
2022/08/15 02:27:12;;;;;;;17.48;15.68;;;;;;;18.63;100.00;98789.63;5031846;28;20029;-76
2022/08/15 02:29:38;;;;;;;19.15;15.85;;;;;;;18.68;100.00;98797.91;5032029;28;20115;-76
2022/08/15 02:32:16;;;;;;;19.30;16.25;;;;;;;18.70;100.00;98795.16;5031893;28;20035;-76
2022/08/15 02:34:44;;;;;;;18.98;15.98;;;;;;;18.69;100.00;98785.56;5031620;28;20029;-76
2022/08/15 02:37:11;;;;;;;16.55;14.95;;;;;;;18.58;100.00;98776.03;5032289;28;20108;-76
2022/08/15 02:39:38;;;;;;;16.58;14.88;;;;;;;18.57;100.00;98778.78;5018090;28;20026;-76
2022/08/15 02:42:04;;;;;;;18.52;16.52;;;;;;;18.51;100.00;98769.66;5036311;28;20036;-76
2022/08/15 02:44:30;;;;;;;18.92;16.98;;;;;;;18.55;100.00;98776.31;5035962;28;20033;-76
2022/08/15 02:46:56;;;;;;;18.40;16.60;;;;;;;18.57;100.00;98782.25;5035970;28;20040;-76
2022/08/15 02:49:23;;;;;;;19.48;17.23;;;;;;;18.57;100.00;98781.44;5035731;28;20026;-76
2022/08/15 02:51:49;;;;;;;18.67;16.75;;;;;;;18.50;100.00;98775.06;5035353;28;20476;-75
2022/08/15 02:54:18;;;;;;;18.10;16.30;;;;;;;18.52;100.00;98778.41;5035757;28;20507;-76
2022/08/15 02:56:44;;;;;;;18.25;15.38;;;;;;;18.42;100.00;98771.34;5035328;28;20037;-76
2022/08/15 02:59:10;;;;;;;18.25;16.35;;;;;;;18.44;100.00;98771.19;5035511;28;20040;-76
2022/08/15 03:01:38;;;;;;;20.55;17.77;;;;;;;18.41;100.00;98771.47;5035143;28;20100;-76
2022/08/15 03:04:07;;;;;;;19.80;16.88;;;;;;;18.38;100.00;98772.63;5035420;28;20541;-76
2022/08/15 03:06:36;;;;;;;20.58;17.33;;;;;;;18.39;100.00;98776.06;5035155;28;20454;-76
2022/08/15 03:09:06;;;;;;;19.48;17.42;;;;;;;18.41;100.00;98780.25;5035519;28;20033;-76
2022/08/15 03:11:34;;;;;;;19.70;17.83;;;;;;;18.37;100.00;98770.09;5035214;28;20376;-76
2022/08/15 03:13:59;;;;;;;21.40;19.20;;;;;;;18.37;100.00;98773.59;5035244;28;20022;-76
2022/08/15 03:16:25;;;;;;;19.75;17.70;;;;;;;18.36;100.00;98773.72;5035127;28;20052;-76
2022/08/15 03:18:50;;;;;;;21.23;19.05;;;;;;;18.33;100.00;98766.94;5034757;28;20026;-76
2022/08/15 03:21:19;;;;;;;26.13;20.83;;;;;;;18.39;100.00;98768.16;5035273;28;20029;-76
2022/08/15 03:23:50;;;;;;;21.50;19.25;;;;;;;18.36;100.00;98773.72;5034855;28;20026;-76
2022/08/15 03:26:17;;;;;;;23.88;19.58;;;;;;;18.38;100.00;98769.97;5035095;28;20037;-76
2022/08/15 03:28:43;;;;;;;24.13;21.38;;;;;;;18.33;100.00;98756.41;5034824;28;20358;-76
2022/08/15 03:31:09;;;;;;;28.65;23.85;;;;;;;18.42;100.00;98768.72;5034886;28;20036;-76
2022/08/15 03:33:36;;;;;;;23.70;21.20;;;;;;;18.38;100.00;98755.97;5034551;28;20033;-76
2022/08/15 03:36:03;;;;;;;26.58;23.77;;;;;;;18.37;100.00;98747.22;5017163;28;20116;-76
2022/08/15 03:38:28;;;;;;;26.08;23.27;;;;;;;18.44;100.00;98750.94;5034661;28;20031;-76
2022/08/15 03:40:54;;;;;;;32.58;26.08;;;;;;;18.41;100.00;98743.34;5035030;28;20599;-76
2022/08/15 03:43:21;;;;;;;24.15;21.67;;;;;;;18.50;100.00;98751.31;5034706;28;20741;-76
2022/08/15 03:45:56;;;;;;;27.83;24.88;;;;;;;18.48;100.00;98748.84;5034408;28;20033;-76
2022/08/15 03:48:24;;;;;;;30.95;24.67;;;;;;;18.52;100.00;98738.84;5034434;28;20029;-76
2022/08/15 03:50:52;;;;;;;29.40;22.25;;;;;;;18.48;100.00;98729.56;5033356;28;20424;-76
2022/08/15 03:53:18;;;;;;;26.80;23.85;;;;;;;18.53;100.00;98737.88;5034598;28;20060;-76
2022/08/15 03:55:44;;;;;;;25.77;22.67;;;;;;;18.57;100.00;98742.69;5016611;28;20496;-76
2022/08/15 03:58:10;;;;;;;25.02;22.33;;;;;;;18.57;100.00;98737.44;5034444;28;20029;-76
2022/08/15 04:00:43;;;;;;;27.85;24.65;;;;;;;18.66;100.00;98752.38;5034454;28;20064;-76
2022/08/15 04:03:17;;;;;;;27.27;22.63;;;;;;;18.60;100.00;98734.50;5034521;28;20032;-76
2022/08/15 04:05:50;;;;;;;26.08;23.38;;;;;;;18.78;100.00;98750.44;5033896;28;20521;-76
2022/08/15 04:08:17;;;;;;;26.60;23.48;;;;;;;18.88;100.00;98753.88;5034179;28;20032;-76
2022/08/15 04:10:44;;;;;;;25.33;21.92;;;;;;;18.93;100.00;98742.88;5033930;28;20446;-76
2022/08/15 04:13:10;;;;;;;24.73;22.13;;;;;;;19.05;100.00;98733.78;5034055;28;20026;-76
2022/08/15 04:15:37;;;;;;;24.70;21.83;;;;;;;19.42;100.00;98753.97;5034025;28;20079;-76
2022/08/15 04:18:04;;;;;;;23.83;21.10;;;;;;;19.75;100.00;98739.28;5034169;28;20029;-76
2022/08/15 04:20:29;;;;;;;23.95;21.58;;;;;;;20.07;100.00;98741.38;5033983;28;20473;-76
2022/08/15 04:22:55;;;;;;;24.92;21.58;;;;;;;20.27;100.00;98733.22;5033701;28;20029;-76
2022/08/15 04:25:22;;;;;;;23.02;20.23;;;;;;;20.39;100.00;98740.78;5033919;28;20029;-76
2022/08/15 04:27:51;;;;;;;25.45;21.08;;;;;;;20.37;100.00;98736.63;5033613;28;20045;-76
2022/08/15 04:30:17;;;;;;;21.90;19.60;;;;;;;20.25;100.00;98735.22;5034016;28;20550;-76
2022/08/15 04:32:43;;;;;;;24.15;20.92;;;;;;;20.26;100.00;98739.50;5033988;28;20026;-76
2022/08/15 04:35:10;;;;;;;23.58;21.05;;;;;;;20.18;100.00;98734.97;5033831;28;20032;-77
2022/08/15 04:37:37;;;;;;;23.48;20.58;;;;;;;20.17;100.00;98750.03;5033386;28;20072;-77
2022/08/15 04:40:08;;;;;;;23.58;20.63;;;;;;;20.13;100.00;98743.38;5033669;28;20029;-77
2022/08/15 04:42:48;;;;;;;23.25;20.23;;;;;;;20.07;100.00;98733.44;5033289;28;20033;-77
2022/08/15 04:45:13;;;;;;;25.20;20.98;;;;;;;20.11;100.00;98745.38;5033503;28;20465;-77
2022/08/15 04:47:39;;;;;;;21.38;19.08;;;;;;;20.15;100.00;98738.78;5033296;28;20033;-77
2022/08/15 04:50:05;;;;;;;24.73;21.08;;;;;;;20.15;100.00;98745.91;5033545;28;20492;-77
2022/08/15 04:52:30;;;;;;;23.52;21.08;;;;;;;20.22;100.00;98754.03;5033616;28;20025;-76
2022/08/15 04:54:57;;;;;;;26.20;22.85;;;;;;;20.14;100.00;98744.22;5033163;28;20026;-76
2022/08/15 04:57:23;;;;;;;25.55;21.80;;;;;;;20.09;100.00;98739.38;5033535;28;20079;-77
2022/08/15 04:59:48;;;;;;;24.52;21.42;;;;;;;20.13;100.00;98743.38;5033094;28;20029;-76
2022/08/15 05:02:14;;;;;;;25.83;22.98;;;;;;;20.14;100.00;98742.41;5033127;28;20033;-76
2022/08/15 05:04:40;;;;;;;24.13;21.63;;;;;;;20.11;100.00;98729.50;5033003;28;20052;-77
2022/08/15 05:07:05;;;;;;;28.40;23.27;;;;;;;20.12;100.00;98740.91;5032866;28;20448;-77
2022/08/15 05:09:31;;;;;;;24.50;21.95;;;;;;;20.08;100.00;98737.72;5033069;28;20474;-77
2022/08/15 05:11:57;;;;;;;28.02;23.25;;;;;;;20.13;100.00;98738.09;5033007;28;20503;-77
2022/08/15 05:14:22;;;;;;;25.50;21.02;;;;;;;20.20;100.00;98746.25;5033225;28;20033;-77
2022/08/15 05:16:47;;;;;;;25.00;22.38;;;;;;;20.20;100.00;98746.25;5032863;28;20037;-77
2022/08/15 05:19:13;;;;;;;23.75;21.35;;;;;;;20.05;100.00;98724.00;5032808;28;20026;-77
2022/08/15 05:21:39;;;;;;;25.85;21.52;;;;;;;20.13;100.00;98734.63;5032547;28;20029;-77
2022/08/15 05:24:05;;;;;;;25.38;21.83;;;;;;;20.21;100.00;98725.94;5032948;28;20029;-77
2022/08/15 05:26:31;;;;;;;25.60;22.17;;;;;;;20.31;100.00;98732.78;5032905;28;20100;-77
2022/08/15 05:28:57;;;;;;;30.40;26.05;;;;;;;20.33;100.00;98727.31;5032862;28;20057;-77
2022/08/15 05:31:22;;;;;;;27.45;23.40;;;;;;;20.38;100.00;98743.56;5032757;28;20060;-77
2022/08/15 05:33:48;;;;;;;24.05;21.42;;;;;;;20.50;100.00;98730.94;5014521;28;20109;-77
2022/08/15 05:36:16;;;;;;;25.48;22.77;;;;;;;20.67;100.00;98741.44;5032538;28;20029;-77
2022/08/15 05:38:46;;;;;;;29.58;24.60;;;;;;;20.70;100.00;98744.75;5032402;28;20405;-77
2022/08/15 05:41:15;;;;;;;23.95;21.38;;;;;;;20.74;100.00;98741.66;5032646;28;20362;-77
2022/08/15 05:43:54;;;;;;;27.60;22.40;;;;;;;20.73;100.00;98745.28;5032324;28;20112;-77
2022/08/15 05:46:40;;;;;;;27.52;23.30;;;;;;;20.91;100.00;98753.13;5032485;28;20481;-77
2022/08/15 05:49:24;;;;;;;28.75;23.83;;;;;;;20.98;100.00;98734.78;5032563;28;20029;-77
2022/08/15 05:52:27;;;;;;;25.55;22.90;;;;;;;21.21;100.00;98745.63;5032276;28;20370;-77
2022/08/15 05:55:19;;;;;;;32.42;25.98;;;;;;;21.29;100.00;98743.81;5032009;28;20373;-77
2022/08/15 05:57:56;;;;;;;26.77;22.90;;;;;;;21.45;100.00;98734.25;5032151;28;20025;-77
2022/08/15 06:00:24;;;;;;;24.88;21.92;;;;;;;21.52;100.00;98729.97;5032292;28;20032;-77
2022/08/15 06:03:02;;;;;;;24.15;21.65;;;;;;;21.86;100.00;98737.78;5014214;28;20469;-77
2022/08/15 06:05:43;;;;;;;28.55;23.52;;;;;;;22.02;100.00;98747.56;5031880;28;20045;-77
2022/08/15 06:08:12;;;;;;;26.10;23.05;;;;;;;22.00;100.00;98744.28;5032515;28;20065;-77
2022/08/15 06:10:51;;;;;;;25.55;22.83;;;;;;;21.92;100.00;98751.22;5031746;28;20029;-77
2022/08/15 06:13:30;;;;;;;26.38;21.95;;;;;;;21.63;100.00;98756.16;5031708;28;20083;-77
2022/08/15 06:16:06;;;;;;;27.17;23.73;;;;;;;21.33;100.00;98747.84;5031734;28;20033;-77
2022/08/15 06:18:35;;;;;;;27.25;24.02;;;;;;;21.20;100.00;98751.91;5032101;28;20287;-77
2022/08/15 06:21:03;;;;;;;30.42;24.55;;;;;;;21.35;100.00;98761.72;5031849;28;20029;-77
2022/08/15 06:23:29;;;;;;;24.55;22.05;;;;;;;21.57;100.00;98762.94;5031826;28;20101;-77
2022/08/15 06:26:02;;;;;;;28.10;22.83;;;;;;;21.62;100.00;98765.94;5031643;28;20144;-77
2022/08/15 06:28:58;;;;;;;31.80;26.13;;;;;;;21.77;100.00;98760.00;5031660;28;20065;-77
2022/08/15 06:31:39;;;;;;;24.85;22.38;;;;;;;22.91;100.00;98759.88;5032180;28;20033;-76
2022/08/15 06:34:13;;;;;;;26.13;22.98;;;;;;;23.52;100.00;98757.41;5031953;28;20374;-77
2022/08/15 06:36:59;;;;;;;26.85;22.50;;;;;;;23.91;100.00;98754.66;5031720;28;20029;-77
2022/08/15 06:39:44;;;;;;;28.70;23.20;;;;;;;25.39;100.00;98760.91;5031740;28;20425;-77
2022/08/15 06:42:29;;;;;;;21.63;19.40;;;;;;;27.20;94.86;98755.97;5031783;28;20029;-77
2022/08/15 06:44:59;;;;;;;22.58;20.27;;;;;;;28.01;87.04;98761.31;5031465;28;20037;-78
2022/08/15 06:47:28;;;;;;;22.17;19.85;;;;;;;28.51;86.15;98751.00;5031373;28;20021;-77
2022/08/15 06:49:59;;;;;;;22.93;18.73;;;;;;;28.64;84.02;98761.69;5031297;28;20172;-77
2022/08/15 06:52:26;;;;;;;24.08;21.02;;;;;;;28.95;80.13;98757.47;5031642;28;20025;-77
2022/08/15 06:54:51;;;;;;;22.50;17.58;;;;;;;30.70;78.12;98763.16;5031517;28;20026;-77
2022/08/15 06:57:22;;;;;;;20.70;17.55;;;;;;;33.52;67.94;98757.22;5031360;28;20040;-77
2022/08/15 07:00:14;;;;;;;20.65;17.83;;;;;;;34.52;63.19;98762.13;5013496;28;20030;-77
2022/08/15 07:03:03;;;;;;;17.67;15.88;;;;;;;35.57;60.55;98752.91;5031677;28;20056;-77
2022/08/15 07:05:28;;;;;;;20.38;17.98;;;;;;;36.26;55.23;98757.56;5031523;28;20064;-77
2022/08/15 07:07:58;;;;;;;20.48;18.35;;;;;;;36.84;50.95;98755.75;5031214;28;20029;-78
2022/08/15 07:10:27;;;;;;;18.20;16.40;;;;;;;38.18;48.55;98753.09;5031512;28;20083;-78
2022/08/15 07:13:13;;;;;;;18.48;16.58;;;;;;;39.37;45.21;98747.03;5031370;28;20049;-78
2022/08/15 07:15:59;;;;;;;19.13;17.05;;;;;;;41.36;40.71;98750.53;5031534;28;20026;-77
2022/08/15 07:18:24;;;;;;;18.50;16.20;;;;;;;41.14;41.49;98753.03;5031022;28;20032;-78
2022/08/15 07:20:58;;;;;;;18.75;16.77;;;;;;;41.97;38.94;98748.00;5031623;28;20378;-78
2022/08/15 07:23:27;;;;;;;20.00;17.45;;;;;;;40.84;40.07;98744.13;5032370;28;20018;-78
2022/08/15 07:26:00;;;;;;;17.33;15.60;;;;;;;42.96;37.99;98733.00;5034636;28;20084;-78
2022/08/15 07:28:28;;;;;;;18.00;15.57;;;;;;;44.12;35.46;98731.38;5035013;28;20048;-77
2022/08/15 07:31:01;;;;;;;16.27;14.68;;;;;;;44.68;34.78;98740.91;5034698;28;20033;-78
2022/08/15 07:33:48;;;;;;;19.95;16.88;;;;;;;45.49;32.58;98734.91;5035151;28;20033;-78
2022/08/15 07:36:24;;;;;;;16.73;15.02;;;;;;;44.73;34.24;98717.97;5034994;28;20030;-78
2022/08/15 07:38:51;;;;;;;16.52;14.93;;;;;;;45.72;33.29;98721.78;5034490;28;20023;-78
2022/08/15 07:41:23;;;;;;;19.70;17.45;;;;;;;46.22;31.18;98731.41;5034778;28;20037;-78
2022/08/15 07:43:52;;;;;;;16.00;14.30;;;;;;;46.31;32.11;98721.16;5034787;28;20033;-78
2022/08/15 07:46:24;;;;;;;18.80;16.70;;;;;;;45.45;31.89;98727.63;5035198;28;20060;-78
2022/08/15 07:49:05;;;;;;;18.42;15.68;;;;;;;44.85;32.40;98725.59;5034547;28;20036;-78
2022/08/15 07:51:41;;;;;;;17.88;14.25;;;;;;;46.10;32.45;98729.31;5034645;28;20018;-78
2022/08/15 07:54:24;;;;;;;18.27;15.75;;;;;;;45.90;31.26;98741.84;5034330;28;20026;-78
2022/08/15 07:56:54;;;;;;;17.42;15.80;;;;;;;46.21;31.33;98718.78;5034403;28;20056;-78
2022/08/15 07:59:22;;;;;;;18.23;16.30;;;;;;;46.97;30.17;98721.50;5034498;28;20032;-78
2022/08/15 08:01:51;;;;;;;17.05;15.13;;;;;;;46.88;30.41;98714.41;5034290;28;20025;-78
2022/08/15 08:04:27;;;;;;;21.48;16.80;;;;;;;45.85;31.14;98710.94;5034350;28;20366;-78
2022/08/15 08:06:59;;;;;;;20.60;14.70;;;;;;;46.33;31.06;98715.34;5033962;28;20107;-79
2022/08/15 08:09:34;;;;;;;16.52;14.77;;;;;;;46.85;30.60;98715.09;5034390;28;20032;-79
2022/08/15 08:12:15;;;;;;;16.15;14.55;;;;;;;47.13;30.38;98716.22;5034189;28;20030;-79
2022/08/15 08:14:52;;;;;;;15.15;13.65;;;;;;;47.20;30.82;98713.72;5034194;28;20099;-79
2022/08/15 08:17:34;;;;;;;16.70;14.27;;;;;;;48.09;29.21;98701.56;5034151;28;20034;-79
2022/08/15 08:20:06;;;;;;;15.15;13.60;;;;;;;48.74;28.59;98721.84;5033831;28;20044;-79
2022/08/15 08:22:43;;;;;;;16.10;14.50;;;;;;;48.39;28.64;98707.69;5034100;28;20068;-79
2022/08/15 08:25:19;;;;;;;16.60;15.00;;;;;;;47.43;29.67;98713.41;5033544;28;20033;-79
2022/08/15 08:27:55;;;;;;;15.80;14.20;;;;;;;46.36;30.74;98707.25;5034141;28;20473;-79
2022/08/15 08:30:24;;;;;;;18.45;16.50;;;;;;;43.23;33.70;98707.50;5034063;28;20507;-78
2022/08/15 08:33:20;;;;;;;16.42;13.75;;;;;;;40.24;38.42;98699.19;5033690;28;20045;-78
2022/08/15 08:35:54;;;;;;;19.20;17.13;;;;;;;37.36;42.60;98702.47;5033379;28;20459;-78
2022/08/15 08:38:41;;;;;;;18.92;16.92;;;;;;;35.37;47.42;98702.03;5033783;28;20532;-78
2022/08/15 08:41:29;;;;;;;18.92;17.13;;;;;;;34.15;50.15;98704.00;5033508;28;20029;-78
2022/08/15 08:44:03;;;;;;;19.40;17.50;;;;;;;32.73;54.02;98696.78;5033279;28;20474;-78
2022/08/15 08:47:03;;;;;;;18.52;16.63;;;;;;;31.74;57.74;98693.97;5033748;28;20474;-78
2022/08/15 08:49:32;;;;;;;21.20;19.00;;;;;;;31.23;59.35;98703.41;4991679;28;20482;-78
2022/08/15 08:52:16;;;;;;;24.33;20.52;;;;;;;30.23;63.77;98706.38;4991408;28;20039;-78
2022/08/15 08:55:04;;;;;;;17.50;15.48;;;;;;;30.06;64.89;98693.50;4991685;28;20138;-78
2022/08/15 08:57:37;;;;;;;20.08;17.27;;;;;;;30.27;64.81;98700.34;4991562;28;20037;-78
2022/08/15 09:00:16;;;;;;;23.90;21.40;;;;;;;29.80;65.29;98707.97;4991309;28;20105;-78
2022/08/15 09:02:52;;;;;;;24.13;20.55;;;;;;;29.39;67.92;98704.91;4975181;28;20033;-78
2022/08/15 09:05:35;;;;;;;23.70;20.98;;;;;;;28.91;69.95;98702.66;4991421;28;20136;-78
2022/08/15 09:08:18;;;;;;;24.67;20.35;;;;;;;28.50;72.40;98703.84;4991386;28;20070;-78
2022/08/15 09:10:49;;;;;;;20.92;18.75;;;;;;;28.28;73.70;98703.22;4991453;28;20044;-78
2022/08/15 09:13:36;;;;;;;21.70;19.10;;;;;;;28.40;73.16;98711.47;4991264;28;20097;-78
2022/08/15 09:16:26;;;;;;;21.00;18.90;;;;;;;28.42;74.41;98712.09;4991052;28;20030;-78
2022/08/15 09:18:52;;;;;;;21.35;19.08;;;;;;;28.43;74.84;98716.41;4990941;28;20041;-78
2022/08/15 09:21:18;;;;;;;20.65;18.45;;;;;;;28.13;74.38;98708.78;4991023;28;20537;-78
2022/08/15 09:23:46;;;;;;;19.48;17.58;;;;;;;27.88;76.34;98705.09;4990865;28;20034;-78
2022/08/15 09:26:40;;;;;;;22.23;20.00;;;;;;;27.82;76.28;98696.06;5004385;28;20124;-78
2022/08/15 09:29:27;;;;;;;21.45;18.08;;;;;;;27.79;76.20;98704.47;5049322;28;20021;-78
2022/08/15 09:32:28;;;;;;;18.30;16.25;;;;;;;27.77;75.68;98712.72;5051268;28;20451;-78
2022/08/15 09:35:12;;;;;;;19.15;14.70;;;;;;;28.26;74.69;98706.09;4970517;28;20042;-78
2022/08/15 09:37:49;;;;;;;17.40;15.60;;;;;;;28.57;72.02;98710.81;4971377;28;20035;-78
2022/08/15 09:40:31;;;;;;;16.92;15.02;;;;;;;28.14;73.84;98709.63;4971066;28;20107;-78
2022/08/15 09:43:23;;;;;;;18.80;16.77;;;;;;;27.92;74.92;98711.69;4971096;28;20038;-78
2022/08/15 09:46:10;;;;;;;17.77;15.55;;;;;;;27.70;75.85;98703.00;4971308;28;20038;-78
2022/08/15 09:49:27;;;;;;;16.35;14.25;;;;;;;27.83;75.04;98695.84;4970610;28;20599;-78
2022/08/15 09:52:05;;;;;;;15.85;13.93;;;;;;;27.89;75.49;98688.84;4951714;29;20035;-78
2022/08/15 09:54:42;;;;;;;16.90;15.13;;;;;;;28.12;75.61;98699.13;4952129;29;20047;-78
2022/08/15 09:57:19;;;;;;;16.60;14.77;;;;;;;28.20;75.55;98690.06;4951607;29;20311;-78
2022/08/15 09:59:51;;;;;;;22.02;15.40;;;;;;;28.10;74.91;98685.09;4952002;29;20186;-78
2022/08/15 10:02:16;;;;;;;17.58;15.80;;;;;;;28.16;74.46;98684.28;4950823;29;20134;-78
2022/08/15 10:04:44;;;;;;;16.58;14.88;;;;;;;27.98;74.67;98684.09;4949711;29;20272;-78
2022/08/15 10:07:10;;;;;;;16.15;14.52;;;;;;;27.61;75.80;98672.97;4950827;28;20058;-78
2022/08/15 10:09:40;;;;;;;16.85;15.23;;;;;;;27.67;75.16;98656.09;4951170;28;20035;-78
2022/08/15 10:12:06;;;;;;;15.43;13.88;;;;;;;27.92;75.07;98674.22;4976996;28;20047;-78
2022/08/15 10:14:52;;;;;;;16.80;14.25;;;;;;;27.92;73.69;98674.22;4989875;28;20540;-78
2022/08/15 10:17:36;;;;;;;15.55;14.00;;;;;;;27.74;75.02;98656.94;4990208;28;20100;-78
2022/08/15 10:20:13;;;;;;;16.15;14.45;;;;;;;27.82;73.88;98670.13;4989816;28;20584;-78
2022/08/15 10:22:48;;;;;;;16.50;14.48;;;;;;;27.85;74.01;98659.00;4989890;28;20058;-78
2022/08/15 10:25:22;;;;;;;17.05;14.77;;;;;;;27.83;73.91;98658.38;4989643;28;20584;-78
2022/08/15 10:28:13;;;;;;;16.83;15.02;;;;;;;27.77;74.24;98663.72;5029318;28;20045;-78
2022/08/15 10:30:45;;;;;;;15.13;13.60;;;;;;;27.72;75.39;98653.59;5051660;28;20049;-78
2022/08/15 10:33:34;;;;;;;17.30;14.68;;;;;;;27.76;76.25;98654.88;5051333;28;20083;-78
2022/08/15 10:36:23;;;;;;;17.43;14.83;;;;;;;27.68;74.95;98638.19;5051012;28;20104;-78
2022/08/15 10:38:59;;;;;;;15.55;14.00;;;;;;;27.65;74.30;98643.97;5051601;28;20033;-78
2022/08/15 10:41:37;;;;;;;17.05;13.70;;;;;;;27.79;74.17;98651.78;5051216;28;20472;-78
2022/08/15 10:44:21;;;;;;;15.52;13.93;;;;;;;27.80;73.82;98650.75;5050685;28;20598;-78
2022/08/15 10:47:24;;;;;;;15.32;13.73;;;;;;;27.78;74.50;98638.63;5033094;28;20033;-77
2022/08/15 10:49:58;;;;;;;15.60;13.30;;;;;;;27.83;75.93;98652.22;5051247;28;20024;-78
2022/08/15 10:52:39;;;;;;;15.05;13.55;;;;;;;27.87;74.26;98644.59;5051714;28;20104;-78
2022/08/15 10:55:23;;;;;;;16.33;14.73;;;;;;;27.65;73.64;98646.63;5050896;28;20138;-77
2022/08/15 10:58:01;;;;;;;15.30;13.70;;;;;;;27.47;75.25;98639.19;5051377;28;20036;-77
2022/08/15 11:00:44;;;;;;;14.93;13.48;;;;;;;27.59;73.88;98638.38;5055415;28;20108;-78
2022/08/15 11:03:24;;;;;;;15.20;13.52;;;;;;;27.46;73.09;98649.06;5054934;28;20037;-77
2022/08/15 11:05:58;;;;;;;12.35;11.15;;;;;;;27.37;71.04;98639.59;5055034;28;20076;-77
2022/08/15 11:08:24;;;;;;;14.07;12.82;;;;;;;27.46;71.23;98651.75;5055308;28;20064;-77
2022/08/15 11:10:50;;;;;;;14.27;12.82;;;;;;;27.48;72.93;98641.69;5055215;28;20075;-78
2022/08/15 11:13:22;;;;;;;15.35;13.18;;;;;;;27.60;72.67;98637.38;5036861;28;20155;-78
2022/08/15 11:15:54;;;;;;;12.13;11.00;;;;;;;27.68;70.62;98639.00;5054986;28;20056;-78
2022/08/15 11:18:29;;;;;;;12.32;10.95;;;;;;;27.77;71.20;98634.28;5036590;28;20061;-78
2022/08/15 11:21:03;;;;;;;12.32;11.20;;;;;;;27.79;70.75;98645.63;5054827;28;20545;-78
2022/08/15 11:23:39;;;;;;;12.27;11.07;;;;;;;27.73;70.80;98647.28;5054447;28;20048;-77
2022/08/15 11:26:08;;;;;;;12.52;11.40;;;;;;;27.63;69.78;98628.09;5054622;28;20090;-78
2022/08/15 11:28:34;;;;;;;12.80;11.15;;;;;;;27.65;69.85;98644.78;5054607;28;20079;-77
2022/08/15 11:31:05;;;;;;;11.25;10.15;;;;;;;27.75;70.79;98637.19;5054362;28;20040;-77
2022/08/15 11:33:41;;;;;;;15.90;11.85;;;;;;;27.81;71.19;98627.50;5054799;28;20029;-77
2022/08/15 11:36:27;;;;;;;11.93;10.73;;;;;;;27.86;69.59;98633.06;5054455;28;20028;-77
2022/08/15 11:38:57;;;;;;;13.82;12.43;;;;;;;27.87;68.76;98645.41;5054364;28;20040;-77